createdAt,value
2023-02-26T00:01:49.355Z,4.93
2023-02-26T00:04:19.594Z,5.37
2023-02-26T00:06:53.815Z,4.53
2023-02-26T00:09:25.627Z,5.53
2023-02-26T00:11:55.605Z,8.77
2023-02-26T00:14:25.175Z,6.63
2023-02-26T00:17:10.086Z,6.37
2023-02-26T00:19:40.726Z,6.23
2023-02-26T00:22:09.834Z,6.53
2023-02-26T00:24:38.130Z,7.30
2023-02-26T00:27:06.917Z,6.63
2023-02-26T00:29:36.702Z,8.07
2023-02-26T00:32:06.121Z,6.77
2023-02-26T00:34:35.597Z,6.00
2023-02-26T00:37:14.918Z,5.20
2023-02-26T00:39:55.502Z,6.67
2023-02-26T00:42:24.635Z,6.00
2023-02-26T00:44:53.867Z,5.63
2023-02-26T00:47:28.328Z,5.80
2023-02-26T00:50:14.000Z,5.40
2023-02-26T00:52:51.018Z,5.60
2023-02-26T00:55:20.314Z,4.67
2023-02-26T00:57:49.093Z,6.13
2023-02-26T01:00:20.012Z,5.47
2023-02-26T01:02:49.117Z,5.90
2023-02-26T01:05:18.549Z,5.70
2023-02-26T01:07:55.599Z,5.07
2023-02-26T01:10:24.919Z,7.20
2023-02-26T01:12:57.210Z,5.67
2023-02-26T01:15:27.407Z,4.93
2023-02-26T01:18:02.700Z,5.17
2023-02-26T01:20:38.168Z,5.17
2023-02-26T01:23:12.841Z,4.27
2023-02-26T01:25:48.474Z,3.93
2023-02-26T01:28:19.247Z,3.30
2023-02-26T01:30:49.127Z,2.97
2023-02-26T01:33:27.373Z,3.40
2023-02-26T01:36:03.186Z,2.70
2023-02-26T01:38:41.994Z,2.73
2023-02-26T01:41:37.772Z,2.77
2023-02-26T01:44:15.721Z,2.50
2023-02-26T01:46:59.613Z,2.77
2023-02-26T01:49:30.226Z,2.60
2023-02-26T01:52:01.218Z,2.27
2023-02-26T01:54:34.208Z,2.43
2023-02-26T01:57:08.714Z,2.43
2023-02-26T01:59:41.416Z,2.97
2023-02-26T02:02:13.042Z,2.83
2023-02-26T02:04:43.609Z,2.83
2023-02-26T02:07:13.040Z,2.67
2023-02-26T02:09:44.672Z,2.57
2023-02-26T02:12:27.526Z,2.53
2023-02-26T02:15:07.425Z,2.63
2023-02-26T02:17:51.142Z,2.50
2023-02-26T02:20:54.331Z,2.50
2023-02-26T02:23:31.079Z,2.77
2023-02-26T02:26:40.957Z,2.70
2023-02-26T02:29:34.926Z,3.90
2023-02-26T02:32:11.262Z,3.63
2023-02-26T02:34:47.396Z,3.00
2023-02-26T02:37:21.625Z,4.67
2023-02-26T02:39:55.700Z,4.00
2023-02-26T02:42:32.804Z,3.80
2023-02-26T02:45:06.895Z,4.07
2023-02-26T02:47:41.333Z,4.30
2023-02-26T02:50:19.237Z,4.50
2023-02-26T02:52:53.676Z,4.50
2023-02-26T02:55:27.850Z,4.63
2023-02-26T02:58:04.626Z,4.70
2023-02-26T03:00:37.142Z,4.17
2023-02-26T03:03:15.948Z,4.40
2023-02-26T03:05:45.461Z,4.70
2023-02-26T03:08:19.008Z,4.10
2023-02-26T03:10:48.753Z,4.17
2023-02-26T03:13:20.360Z,4.13
2023-02-26T03:16:01.666Z,5.13
2023-02-26T03:18:44.054Z,4.93
2023-02-26T03:21:18.372Z,4.53
2023-02-26T03:23:56.682Z,4.83
2023-02-26T03:26:33.249Z,5.13
2023-02-26T03:29:11.063Z,6.13
2023-02-26T03:31:49.931Z,5.47
2023-02-26T03:34:28.998Z,5.27
2023-02-26T03:37:01.953Z,6.57
2023-02-26T03:39:35.811Z,5.67
2023-02-26T03:42:10.151Z,5.70
2023-02-26T03:44:44.140Z,5.90
2023-02-26T03:47:16.531Z,6.23
2023-02-26T03:49:52.560Z,6.40
2023-02-26T03:52:25.497Z,7.07
2023-02-26T03:55:01.956Z,7.33
2023-02-26T03:57:31.055Z,6.93
2023-02-26T04:00:00.873Z,7.00
2023-02-26T04:02:34.243Z,7.00
2023-02-26T04:05:09.987Z,7.50
2023-02-26T04:07:40.445Z,7.80
2023-02-26T04:10:11.460Z,7.67
2023-02-26T04:12:40.576Z,7.90
2023-02-26T04:15:10.860Z,7.53
2023-02-26T04:17:39.887Z,7.30
2023-02-26T04:20:12.745Z,7.43
2023-02-26T04:22:42.772Z,8.20
2023-02-26T04:25:11.886Z,6.57
2023-02-26T04:27:40.549Z,8.93
2023-02-26T04:30:10.909Z,6.57
2023-02-26T04:32:40.757Z,6.93
2023-02-26T04:35:13.291Z,7.00
2023-02-26T04:37:42.981Z,6.63
2023-02-26T04:40:14.434Z,7.33
2023-02-26T04:42:47.334Z,6.53
2023-02-26T04:45:16.688Z,6.63
2023-02-26T04:47:45.660Z,6.37
2023-02-26T04:50:17.374Z,6.13
2023-02-26T04:52:46.993Z,5.87
2023-02-26T04:55:17.733Z,6.10
2023-02-26T04:57:47.990Z,6.33
2023-02-26T05:00:25.497Z,6.37
2023-02-26T05:02:54.552Z,6.70
2023-02-26T05:05:27.110Z,7.20
2023-02-26T05:07:57.002Z,6.30
2023-02-26T05:10:27.808Z,6.93
2023-02-26T05:12:56.679Z,6.63
2023-02-26T05:15:26.189Z,7.23
2023-02-26T05:17:55.702Z,5.97
2023-02-26T05:20:27.229Z,6.17
2023-02-26T05:22:57.376Z,6.37
2023-02-26T05:25:27.070Z,6.00
2023-02-26T05:27:56.548Z,6.50
2023-02-26T05:30:26.378Z,6.97
2023-02-26T05:32:55.966Z,7.20
2023-02-26T05:35:26.283Z,6.33
2023-02-26T05:37:56.026Z,5.50
2023-02-26T05:40:25.970Z,5.27
2023-02-26T05:42:54.799Z,4.70
2023-02-26T05:45:24.445Z,4.70
2023-02-26T05:47:53.681Z,4.33
2023-02-26T05:50:24.044Z,3.83
2023-02-26T05:52:56.179Z,4.50
2023-02-26T05:55:26.569Z,4.00
2023-02-26T05:57:55.882Z,4.30
2023-02-26T06:00:26.698Z,4.00
2023-02-26T06:02:57.175Z,4.10
2023-02-26T06:05:27.053Z,4.17
2023-02-26T06:07:58.739Z,3.83
2023-02-26T06:10:28.559Z,1.80
2023-02-26T06:12:57.998Z,1.23
2023-02-26T06:15:27.734Z,0.90
2023-02-26T06:17:56.701Z,0.67
2023-02-26T06:20:26.270Z,0.60
2023-02-26T06:22:56.747Z,0.70
2023-02-26T06:25:26.363Z,0.57
2023-02-26T06:27:56.078Z,0.60
2023-02-26T06:30:25.960Z,0.63
2023-02-26T06:32:56.194Z,0.40
2023-02-26T06:35:26.602Z,0.50
2023-02-26T06:37:58.128Z,0.50
2023-02-26T06:40:30.310Z,0.60
2023-02-26T06:43:00.784Z,0.50
2023-02-26T06:45:29.652Z,0.87
2023-02-26T06:47:58.743Z,0.50
2023-02-26T06:50:29.543Z,0.60
2023-02-26T06:53:00.471Z,0.43
2023-02-26T06:55:29.524Z,0.40
2023-02-26T06:57:59.105Z,0.57
2023-02-26T07:00:28.484Z,0.60
2023-02-26T07:02:58.741Z,0.60
2023-02-26T07:05:28.554Z,0.63
2023-02-26T07:08:00.124Z,0.33
2023-02-26T07:10:30.224Z,0.40
2023-02-26T07:12:59.912Z,0.33
2023-02-26T07:15:28.800Z,0.70
2023-02-26T07:18:00.302Z,0.80
2023-02-26T07:20:31.681Z,0.70
2023-02-26T07:23:03.222Z,0.60
2023-02-26T07:25:31.697Z,0.93
2023-02-26T07:28:01.169Z,0.80
2023-02-26T07:30:31.397Z,1.43
2023-02-26T07:33:00.898Z,3.03
2023-02-26T07:35:31.437Z,1.70
2023-02-26T07:38:03.088Z,4.00
2023-02-26T07:40:33.221Z,2.10
2023-02-26T07:43:03.536Z,1.50
2023-02-26T07:45:32.908Z,1.30
2023-02-26T07:48:02.100Z,1.10
2023-02-26T07:50:33.191Z,1.77
2023-02-26T07:53:04.643Z,1.10
2023-02-26T07:55:33.529Z,1.27
2023-02-26T07:58:02.640Z,1.50
2023-02-26T08:00:31.889Z,1.40
2023-02-26T08:03:01.542Z,1.20
2023-02-26T08:05:31.240Z,1.13
2023-02-26T08:08:02.197Z,1.00
2023-02-26T08:10:33.054Z,1.10
2023-02-26T08:13:02.001Z,1.00
2023-02-26T08:15:31.219Z,0.80
2023-02-26T08:18:00.456Z,0.80
2023-02-26T08:20:30.093Z,1.27
2023-02-26T08:23:00.158Z,1.10
2023-02-26T08:25:30.189Z,0.90
2023-02-26T08:28:02.047Z,0.77
2023-02-26T08:30:31.911Z,0.90
2023-02-26T08:33:01.600Z,1.83
2023-02-26T08:35:32.223Z,6.30
2023-02-26T08:38:01.638Z,5.67
2023-02-26T08:40:31.063Z,5.80
2023-02-26T08:43:01.805Z,3.60
2023-02-26T08:45:34.519Z,2.30
2023-02-26T08:48:03.387Z,3.33
2023-02-26T08:50:34.230Z,1.60
2023-02-26T08:53:04.437Z,1.50
2023-02-26T08:55:33.394Z,1.00
2023-02-26T08:58:04.927Z,0.90
2023-02-26T09:00:34.505Z,1.13
2023-02-26T09:03:04.373Z,1.00
2023-02-26T09:05:34.102Z,0.57
2023-02-26T09:08:03.880Z,0.70
2023-02-26T09:10:34.031Z,0.60
2023-02-26T09:13:04.616Z,0.63
2023-02-26T09:15:33.286Z,0.77
2023-02-26T09:18:02.832Z,1.40
2023-02-26T09:20:33.168Z,1.30
2023-02-26T09:23:01.881Z,1.40
2023-02-26T09:25:30.641Z,1.80
2023-02-26T09:27:59.242Z,1.90
2023-02-26T09:30:30.129Z,2.30
2023-02-26T09:33:00.410Z,1.33
2023-02-26T09:35:29.267Z,1.70
2023-02-26T09:37:59.450Z,2.60
2023-02-26T09:40:38.464Z,2.57
2023-02-26T09:43:31.816Z,1.90
2023-02-26T09:46:05.394Z,2.20
2023-02-26T09:48:35.997Z,2.03
2023-02-26T09:51:05.811Z,3.50
2023-02-26T09:53:40.713Z,5.17
2023-02-26T09:56:16.096Z,5.83
2023-02-26T09:58:46.134Z,7.20
2023-02-26T10:01:24.534Z,7.80
2023-02-26T10:04:03.817Z,8.57
2023-02-26T10:06:35.819Z,3.57
2023-02-26T10:09:27.465Z,6.10
2023-02-26T10:12:01.882Z,4.13
2023-02-26T10:14:35.801Z,3.00
2023-02-26T10:17:14.783Z,5.40
2023-02-26T10:19:48.818Z,8.60
2023-02-26T10:22:25.285Z,7.87
2023-02-26T10:24:59.497Z,6.93
2023-02-26T10:27:44.734Z,4.00
2023-02-26T10:30:20.608Z,5.43
2023-02-26T10:33:00.463Z,10.20
2023-02-26T10:35:33.160Z,6.93
2023-02-26T10:38:05.296Z,5.43
2023-02-26T10:40:40.034Z,4.33
2023-02-26T10:43:14.986Z,2.70
2023-02-26T10:45:51.276Z,3.33
2023-02-26T10:48:35.268Z,3.57
2023-02-26T10:51:14.716Z,3.80
2023-02-26T10:53:48.027Z,3.40
2023-02-26T10:56:21.704Z,3.30
2023-02-26T10:58:50.028Z,3.50
2023-02-26T11:01:20.617Z,2.40
2023-02-26T11:03:55.883Z,2.80
2023-02-26T11:06:28.902Z,5.60
2023-02-26T11:08:59.654Z,3.67
2023-02-26T11:11:42.669Z,3.93
2023-02-26T11:14:12.117Z,2.77
2023-02-26T11:16:49.198Z,3.27
2023-02-26T11:19:22.947Z,3.00
2023-02-26T11:21:52.859Z,3.23
2023-02-26T11:24:29.708Z,3.03
2023-02-26T11:27:02.497Z,2.33
2023-02-26T11:29:38.513Z,2.90
2023-02-26T11:32:08.026Z,3.00
2023-02-26T11:34:38.585Z,1.83
2023-02-26T11:37:07.356Z,2.60
2023-02-26T11:39:39.976Z,3.37
2023-02-26T11:42:09.483Z,3.77
2023-02-26T11:44:41.691Z,7.63
2023-02-26T11:47:17.695Z,7.23
2023-02-26T11:49:52.688Z,4.97
2023-02-26T11:52:30.352Z,3.43
2023-02-26T11:55:04.406Z,2.63
2023-02-26T11:57:34.741Z,2.60
2023-02-26T12:00:17.491Z,2.40
2023-02-26T12:02:46.323Z,2.97
2023-02-26T12:05:19.014Z,6.43
2023-02-26T12:07:48.933Z,6.67
2023-02-26T12:10:22.464Z,4.47
2023-02-26T12:13:06.421Z,3.73
2023-02-26T12:15:40.960Z,2.70
2023-02-26T12:18:34.200Z,2.83
2023-02-26T12:21:25.191Z,2.60
2023-02-26T12:24:17.331Z,2.10
2023-02-26T12:26:55.038Z,2.77
2023-02-26T12:29:56.459Z,2.20
2023-02-26T12:32:48.824Z,3.00
2023-02-26T12:35:36.490Z,2.60
2023-02-26T12:38:21.613Z,3.20
2023-02-26T12:41:19.899Z,2.37
2023-02-26T12:43:51.512Z,2.63
2023-02-26T12:46:34.532Z,3.40
2023-02-26T12:49:44.724Z,5.70
2023-02-26T12:52:38.109Z,3.40
2023-02-26T12:55:23.076Z,3.63
2023-02-26T12:58:27.556Z,4.17
2023-02-26T13:02:00.364Z,4.97
2023-02-26T13:04:56.501Z,4.83
2023-02-26T13:07:49.905Z,5.17
2023-02-26T13:10:28.434Z,3.80
2023-02-26T13:13:11.499Z,3.07
2023-02-26T13:15:54.911Z,3.50
2023-02-26T13:18:33.020Z,1.90
2023-02-26T13:21:05.972Z,14.10
2023-02-26T13:23:38.884Z,13.00
2023-02-26T13:26:11.616Z,13.60
2023-02-26T13:28:44.800Z,8.00
2023-02-26T13:31:18.440Z,5.53
2023-02-26T13:33:49.731Z,3.70
2023-02-26T13:36:19.232Z,4.73
2023-02-26T13:38:57.271Z,5.47
2023-02-26T13:41:34.357Z,10.93
2023-02-26T13:44:23.077Z,11.93
2023-02-26T13:47:17.103Z,9.17
2023-02-26T13:50:04.451Z,5.87
2023-02-26T13:52:36.283Z,3.20
2023-02-26T13:55:06.596Z,5.77
2023-02-26T13:57:52.735Z,3.17
2023-02-26T14:00:28.668Z,4.20
2023-02-26T14:02:59.214Z,3.17
2023-02-26T14:05:55.301Z,2.40
2023-02-26T14:08:40.044Z,2.27
2023-02-26T14:11:40.063Z,2.80
2023-02-26T14:14:19.182Z,2.67
2023-02-26T14:16:54.541Z,1.83
2023-02-26T14:19:30.556Z,2.27
2023-02-26T14:22:03.774Z,3.93
2023-02-26T14:24:37.310Z,4.80
2023-02-26T14:27:23.868Z,3.27
2023-02-26T14:30:05.320Z,12.43
2023-02-26T14:32:35.917Z,9.60
2023-02-26T14:35:12.627Z,6.87
2023-02-26T14:37:42.574Z,4.97
2023-02-26T14:40:16.653Z,3.20
2023-02-26T14:42:50.552Z,3.40
2023-02-26T14:45:31.108Z,3.90
2023-02-26T14:48:00.994Z,3.30
2023-02-26T14:50:40.916Z,7.80
2023-02-26T14:53:30.352Z,22.27
2023-02-26T14:56:09.214Z,17.37
2023-02-26T14:58:51.154Z,9.50
2023-02-26T15:01:36.229Z,13.60
2023-02-26T15:04:28.845Z,7.60
2023-02-26T15:07:21.204Z,7.30
2023-02-26T15:10:05.418Z,9.80
2023-02-26T15:12:46.061Z,11.10
2023-02-26T15:15:37.983Z,12.03
2023-02-26T15:18:33.422Z,5.33
2023-02-26T15:21:10.670Z,6.10
2023-02-26T15:23:42.510Z,5.53
2023-02-26T15:26:20.726Z,5.57
2023-02-26T15:28:49.815Z,5.30
2023-02-26T15:31:19.976Z,5.30
2023-02-26T15:33:51.039Z,5.53
2023-02-26T15:36:24.405Z,17.37
2023-02-26T15:38:56.859Z,22.47
2023-02-26T15:41:27.679Z,14.13
2023-02-26T15:44:00.544Z,8.00
2023-02-26T15:46:33.061Z,17.90
2023-02-26T15:49:07.242Z,16.33
2023-02-26T15:51:36.070Z,10.60
2023-02-26T15:54:05.063Z,7.67
2023-02-26T15:56:36.765Z,6.80
2023-02-26T15:59:08.618Z,10.03
2023-02-26T16:01:37.391Z,6.97
2023-02-26T16:04:14.761Z,6.30
2023-02-26T16:06:46.013Z,9.63
2023-02-26T16:09:18.594Z,11.20
2023-02-26T16:11:48.815Z,14.10
2023-02-26T16:14:22.453Z,10.90
2023-02-26T16:16:53.448Z,15.23
2023-02-26T16:19:30.163Z,10.80
2023-02-26T16:22:00.772Z,8.33
2023-02-26T16:24:30.614Z,8.00
2023-02-26T16:27:04.950Z,8.07
2023-02-26T16:29:35.182Z,6.73
2023-02-26T16:32:05.986Z,8.10
2023-02-26T16:34:43.323Z,7.03
2023-02-26T16:37:19.316Z,4.77
2023-02-26T16:39:47.736Z,5.23
2023-02-26T16:42:21.021Z,6.30
2023-02-26T16:44:53.564Z,8.40
2023-02-26T16:47:22.139Z,9.83
2023-02-26T16:49:52.961Z,7.40
2023-02-26T16:52:25.840Z,5.37
2023-02-26T16:55:01.788Z,3.90
2023-02-26T16:57:36.890Z,4.20
2023-02-26T17:00:10.982Z,3.70
2023-02-26T17:02:42.046Z,6.13
2023-02-26T17:05:23.062Z,6.70
2023-02-26T17:07:58.469Z,4.93
2023-02-26T17:10:34.166Z,4.70
2023-02-26T17:13:14.964Z,3.53
2023-02-26T17:15:45.493Z,2.80
2023-02-26T17:18:14.069Z,2.00
2023-02-26T17:20:46.696Z,3.70
2023-02-26T17:23:17.858Z,3.00
2023-02-26T17:25:50.354Z,3.40
2023-02-26T17:28:22.629Z,4.20
2023-02-26T17:30:55.139Z,5.47
2023-02-26T17:33:23.745Z,5.67
2023-02-26T17:35:56.703Z,5.33
2023-02-26T17:38:25.357Z,3.40
2023-02-26T17:40:55.694Z,3.43
2023-02-26T17:43:24.965Z,2.43
2023-02-26T17:45:53.840Z,8.10
2023-02-26T17:48:22.494Z,4.27
2023-02-26T17:50:54.850Z,6.00
2023-02-26T17:53:27.474Z,4.00
2023-02-26T17:55:56.738Z,4.10
2023-02-26T17:58:29.284Z,6.53
2023-02-26T18:00:58.427Z,4.63
2023-02-26T18:03:27.186Z,6.03
2023-02-26T18:05:58.030Z,4.50
2023-02-26T18:08:28.623Z,6.10
2023-02-26T18:10:57.744Z,3.40
2023-02-26T18:13:27.058Z,7.57
2023-02-26T18:15:56.791Z,6.00
2023-02-26T18:18:25.925Z,3.30
2023-02-26T18:20:54.680Z,3.70
2023-02-26T18:23:25.033Z,3.30
2023-02-26T18:25:56.537Z,4.17
2023-02-26T18:28:27.403Z,4.40
2023-02-26T18:30:57.744Z,2.00
2023-02-26T18:33:27.471Z,2.70
2023-02-26T18:35:58.262Z,1.87
2023-02-26T18:38:29.336Z,1.60
2023-02-26T18:40:58.550Z,1.53
2023-02-26T18:43:27.898Z,1.67
2023-02-26T18:45:57.288Z,1.10
2023-02-26T18:48:25.747Z,2.20
2023-02-26T18:50:55.904Z,1.10
2023-02-26T18:53:24.799Z,1.87
2023-02-26T18:55:57.064Z,7.30
2023-02-26T18:58:25.535Z,4.53
2023-02-26T19:00:54.042Z,5.77
2023-02-26T19:03:22.346Z,8.40
2023-02-26T19:05:58.840Z,11.10
2023-02-26T19:08:27.688Z,4.57
2023-02-26T19:10:57.430Z,4.77
2023-02-26T19:13:26.693Z,3.20
2023-02-26T19:15:55.279Z,2.93
2023-02-26T19:18:23.751Z,3.27
2023-02-26T19:20:52.040Z,3.60
2023-02-26T19:23:20.418Z,2.93
2023-02-26T19:25:48.720Z,2.57
2023-02-26T19:28:18.579Z,2.47
2023-02-26T19:30:46.858Z,2.60
2023-02-26T19:33:16.831Z,3.17
2023-02-26T19:35:46.151Z,3.10
2023-02-26T19:38:14.446Z,3.43
2023-02-26T19:40:43.745Z,5.20
2023-02-26T19:43:12.157Z,4.10
2023-02-26T19:45:42.528Z,7.77
2023-02-26T19:48:10.978Z,8.67
2023-02-26T19:50:39.524Z,4.60
2023-02-26T19:53:07.900Z,4.57
2023-02-26T19:55:36.339Z,7.57
2023-02-26T19:58:04.591Z,13.90
2023-02-26T20:00:33.332Z,4.47
2023-02-26T20:03:03.145Z,4.07
2023-02-26T20:05:31.489Z,3.73
2023-02-26T20:07:59.777Z,4.33
2023-02-26T20:10:29.358Z,4.80
2023-02-26T20:12:58.382Z,5.13
2023-02-26T20:15:27.976Z,4.33
2023-02-26T20:17:57.172Z,7.67
2023-02-26T20:20:27.770Z,16.67
2023-02-26T20:22:56.462Z,4.87
2023-02-26T20:25:24.942Z,4.03
2023-02-26T20:27:53.324Z,2.60
2023-02-26T20:30:22.582Z,3.83
2023-02-26T20:32:51.372Z,4.93
2023-02-26T20:35:21.420Z,3.60
2023-02-26T20:37:51.509Z,3.40
2023-02-26T20:40:20.599Z,2.40
2023-02-26T20:42:48.823Z,4.20
2023-02-26T20:45:18.942Z,2.33
2023-02-26T20:47:47.281Z,2.73
2023-02-26T20:50:19.054Z,3.70
2023-02-26T20:52:47.789Z,3.23
2023-02-26T20:55:20.464Z,1.87
2023-02-26T20:57:49.212Z,1.27
2023-02-26T21:00:19.265Z,1.17
2023-02-26T21:02:47.882Z,1.00
2023-02-26T21:05:17.498Z,1.20
2023-02-26T21:07:45.913Z,2.17
2023-02-26T21:10:17.022Z,2.13
2023-02-26T21:12:47.764Z,1.23
2023-02-26T21:15:17.120Z,1.50
2023-02-26T21:17:46.031Z,1.00
2023-02-26T21:20:18.533Z,1.27
2023-02-26T21:22:47.964Z,1.07
2023-02-26T21:25:16.785Z,1.20
2023-02-26T21:27:47.341Z,1.10
2023-02-26T21:30:17.861Z,0.80
2023-02-26T21:32:46.550Z,0.70
2023-02-26T21:35:17.582Z,0.50
2023-02-26T21:37:46.392Z,0.57
2023-02-26T21:40:17.205Z,1.00
2023-02-26T21:42:50.411Z,0.90
2023-02-26T21:45:21.223Z,0.80
2023-02-26T21:47:49.704Z,0.87
2023-02-26T21:50:19.621Z,1.07
2023-02-26T21:52:48.160Z,0.80
2023-02-26T21:55:17.671Z,1.00
2023-02-26T21:57:48.018Z,0.90
2023-02-26T22:00:18.991Z,1.50
2023-02-26T22:02:47.440Z,1.00
2023-02-26T22:05:16.019Z,0.90
2023-02-26T22:07:46.458Z,1.27
2023-02-26T22:10:15.105Z,1.70
2023-02-26T22:12:43.607Z,1.50
2023-02-26T22:15:14.006Z,0.80
2023-02-26T22:17:42.843Z,0.90
2023-02-26T22:20:14.267Z,0.90
2023-02-26T22:22:42.743Z,0.80
2023-02-26T22:25:15.369Z,1.00
2023-02-26T22:27:43.704Z,0.97
2023-02-26T22:30:14.479Z,1.00
2023-02-26T22:32:43.952Z,1.20
2023-02-26T22:35:14.031Z,1.13
2023-02-26T22:37:42.922Z,0.90
2023-02-26T22:40:13.612Z,0.87
2023-02-26T22:42:42.642Z,0.80
2023-02-26T22:45:17.276Z,0.70
2023-02-26T22:47:45.872Z,0.93
2023-02-26T22:50:14.792Z,0.63
2023-02-26T22:52:43.603Z,0.80
2023-02-26T22:55:12.992Z,1.37
2023-02-26T22:57:41.446Z,0.80
2023-02-26T23:00:16.238Z,0.80
2023-02-26T23:02:44.577Z,0.80
2023-02-26T23:05:13.588Z,0.80
2023-02-26T23:07:42.396Z,0.97
2023-02-26T23:10:14.045Z,0.67
2023-02-26T23:12:42.971Z,0.80
2023-02-26T23:15:13.384Z,0.90
2023-02-26T23:17:42.404Z,0.80
2023-02-26T23:20:14.202Z,0.90
2023-02-26T23:22:43.875Z,0.77
2023-02-26T23:25:13.182Z,1.73
2023-02-26T23:27:41.660Z,0.80
2023-02-26T23:30:11.208Z,0.90
2023-02-26T23:32:40.953Z,0.77
2023-02-26T23:35:10.289Z,0.93
2023-02-26T23:37:38.572Z,1.23
2023-02-26T23:40:08.183Z,0.70
2023-02-26T23:42:36.579Z,0.90
2023-02-26T23:45:05.444Z,0.90
2023-02-26T23:47:33.761Z,0.80
2023-02-26T23:50:03.911Z,1.20
2023-02-26T23:52:32.264Z,0.80
2023-02-26T23:55:01.195Z,1.13
2023-02-26T23:57:29.520Z,0.90
2023-02-26T23:59:57.873Z,0.70
